Aérodrome :
LOGIN :

S'inscrire | Disclaimer

   EN    FR    IT 

 










Légende :    VFR   VFR Marginal   IFR   IFR Intensif   IFR Très Intensif
Visi : 
Plafond : 
>= 8 km
>= 3000ft
5 à 8 km
1000 à 3000 ft
1500m à 5 km
500 à 1000 ft
800 à 1500m
200 à 500 ft
< 800m
< 200 ft
Symboles :   Orages  Brouillard  Fortes neiges  Fortes précipitations  Vent > 20 kt
SIGMETs :   Divers  Orages  Givrage  Turbulence  Onde Orograph.  Cendres Volcan.






- Altitude de l'aérodrome : 86 ft


LERT - Rota Navy

DERNIER METAR :
  • 161900Z 29006KT 9000 NSC 15/13 Q1027 NOSIG

METARs EXPIRÉS :
  • 161800Z 28006KT CAVOK 16/14 Q1027 NOSIG
  • 161700Z 28008KT CAVOK 17/14 Q1027 NOSIG

TAF TAF LERT
Valide du 16 à 18h jusqu'au 17 à 03h UTC


161700Z 1618/1703 27008KT CAVOK
TEMPO 1700/1703 3000 BR BKN005
PROB40
TEMPO 1700/1703 0300 BCFG VV001



MET'MAP, la Météo Aéronautique d'un coup d'oeil ! - Copyright ORBIFLY Décembre 2007 - Disclaimer

ORBIFLY MET'MAP TEAM :

Programmation & Développement : Alexandra Zaïnal
Sur une idée originale de : Baudouin d'Aumeries
Assistance à la programmation : Marc-Olivier Méhu
Soutien technique & logistique : Manuel Goepfert

Contact : metmap@orbifly.com




SOURCES & CREDITS :

   NOAA